createdAt,value
2018-06-25T09:24:42.043Z,22.7
2018-06-25T09:26:52.795Z,23.3
2018-06-25T09:32:04.813Z,24
2018-06-25T09:37:16.892Z,24.2
2018-06-25T09:42:29.016Z,24.1
2018-06-25T09:47:41.056Z,24.3
2018-06-25T09:52:53.135Z,24.5
2018-06-25T09:58:07.022Z,24.8
2018-06-25T10:03:17.661Z,24.5
2018-06-25T10:08:29.335Z,24.5
2018-06-25T10:13:41.435Z,25
2018-06-25T10:18:53.578Z,24.8
2018-06-25T10:24:05.598Z,24.8
2018-06-25T10:29:17.650Z,24.3
2018-06-25T10:34:29.679Z,24.6
2018-06-25T10:39:41.776Z,25.2
2018-06-25T10:44:53.987Z,24.7
2018-06-25T10:50:05.917Z,24.5
2018-06-25T10:55:17.980Z,25.2
2018-06-25T11:00:32.329Z,26.3
2018-06-25T11:05:42.126Z,26.8
2018-06-25T11:10:54.281Z,28
2018-06-25T11:16:06.398Z,26.8
2018-06-25T11:21:18.443Z,25.5
2018-06-25T11:26:30.757Z,25.9
2018-06-25T11:31:42.616Z,27.6
2018-06-25T11:36:54.644Z,28.8
2018-06-25T11:42:06.714Z,30.3
2018-06-25T11:47:18.709Z,26.9
2018-06-25T11:52:30.892Z,26.1
2018-06-25T11:57:42.854Z,26.4
2018-06-25T12:02:55.010Z,29.9
2018-06-25T12:08:07.004Z,31.5
2018-06-25T12:13:19.220Z,30.1
2018-06-25T12:18:31.395Z,28.7
2018-06-25T12:23:43.443Z,27.1
2018-06-25T12:28:55.385Z,31.5
2018-06-25T12:34:07.402Z,31.1
2018-06-25T12:39:19.454Z,31.4
2018-06-25T12:44:31.571Z,29.2
2018-06-25T12:49:43.673Z,28.4
2018-06-25T12:54:55.693Z,28.4
2018-06-25T13:00:07.744Z,28.7
2018-06-25T13:05:19.869Z,28.7
2018-06-25T13:10:32.010Z,28.6
2018-06-25T13:15:43.973Z,32.8
2018-06-25T13:20:56.069Z,33.3
2018-06-25T13:26:08.395Z,33.8
2018-06-25T13:31:20.545Z,32.4
2018-06-25T13:36:32.356Z,33.5
2018-06-25T13:41:44.403Z,33.4
2018-06-25T13:46:56.471Z,31.3
2018-06-25T13:52:08.541Z,31.9
2018-06-25T13:57:20.554Z,32.3
2018-06-25T14:02:32.887Z,29.3
2018-06-25T14:07:45.236Z,28.9
2018-06-25T14:12:57.025Z,28.4
2018-06-25T14:18:08.939Z,27.8
2018-06-25T14:23:20.919Z,27.9
2018-06-25T14:28:33.118Z,27.8
2018-06-25T14:34:09.443Z,27.7
2018-06-25T14:40:40.347Z,28.6
2018-06-25T14:46:58.154Z,30.6
2018-06-25T14:53:28.303Z,27.7
